createdAt,value
2018-05-02T00:00:17.159Z,19.74
2018-05-02T00:02:47.800Z,19.52
2018-05-02T00:05:18.836Z,19.66
2018-05-02T00:07:49.551Z,19.85
2018-05-02T00:10:20.625Z,19.89
2018-05-02T00:12:51.362Z,19.72
2018-05-02T00:15:22.500Z,19.34
2018-05-02T00:17:53.233Z,19.38
2018-05-02T00:20:23.828Z,19.75
2018-05-02T00:22:55.092Z,19.82
2018-05-02T00:25:26.283Z,19.76
2018-05-02T00:27:57.010Z,19.72
2018-05-02T00:30:27.589Z,19.53
2018-05-02T00:32:58.356Z,19.31
2018-05-02T00:35:28.975Z,19.33
2018-05-02T00:37:59.719Z,19.25
2018-05-02T00:40:30.336Z,18.98
2018-05-02T00:43:00.904Z,18.95
2018-05-02T00:45:31.482Z,19.28
2018-05-02T00:48:02.024Z,19.03
2018-05-02T00:50:32.662Z,18.44
2018-05-02T00:53:03.269Z,18.32
2018-05-02T00:55:34.069Z,18.40
2018-05-02T00:58:04.725Z,18.09
2018-05-02T01:00:35.429Z,17.87
2018-05-02T01:03:06.171Z,18.08
2018-05-02T01:05:36.636Z,18.79
2018-05-02T01:08:07.413Z,18.77
2018-05-02T01:10:38.040Z,18.61
2018-05-02T01:13:08.953Z,18.78
2018-05-02T01:15:40.007Z,18.44
2018-05-02T01:18:10.727Z,18.28
2018-05-02T01:20:42.193Z,18.22
2018-05-02T01:23:14.300Z,18.15
2018-05-02T01:25:45.141Z,17.83
2018-05-02T01:28:16.173Z,17.87
2018-05-02T01:30:46.872Z,17.95
2018-05-02T01:33:17.430Z,18.09
2018-05-02T01:35:48.110Z,18.13
2018-05-02T01:38:18.836Z,18.35
2018-05-02T01:40:49.488Z,18.37
2018-05-02T01:43:20.159Z,18.36
2018-05-02T01:45:51.095Z,18.15
2018-05-02T01:48:21.848Z,17.95
2018-05-02T01:50:52.501Z,18.02
2018-05-02T01:53:23.141Z,18.14
2018-05-02T01:55:53.914Z,18.17
2018-05-02T01:58:24.604Z,18.21
2018-05-02T02:00:55.160Z,18.06
2018-05-02T02:03:25.949Z,18.03
2018-05-02T02:05:56.254Z,18.01
2018-05-02T02:08:26.980Z,17.86
2018-05-02T02:10:57.708Z,17.67
2018-05-02T02:13:28.824Z,17.27
2018-05-02T02:15:59.679Z,17.06
2018-05-02T02:18:30.253Z,17.10
2018-05-02T02:21:00.702Z,17.37
2018-05-02T02:23:31.425Z,17.65
2018-05-02T02:26:02.048Z,17.71
2018-05-02T02:28:32.525Z,17.62
2018-05-02T02:31:03.405Z,17.84
2018-05-02T02:33:34.531Z,17.91
2018-05-02T02:36:05.197Z,18.02
2018-05-02T02:38:35.996Z,17.88
2018-05-02T02:41:06.707Z,17.59
2018-05-02T02:43:37.284Z,17.35
2018-05-02T02:46:08.399Z,17.53
2018-05-02T02:48:39.200Z,17.54
2018-05-02T02:51:09.862Z,17.62
2018-05-02T02:53:40.427Z,17.87
2018-05-02T02:56:11.249Z,17.99
2018-05-02T02:58:41.845Z,17.68
2018-05-02T03:01:13.370Z,17.46
2018-05-02T03:03:44.979Z,17.91
2018-05-02T03:06:15.632Z,17.89
2018-05-02T03:08:46.270Z,17.42
2018-05-02T03:11:16.557Z,17.51
2018-05-02T03:13:47.279Z,17.75
2018-05-02T03:16:18.016Z,17.74
2018-05-02T03:18:48.645Z,17.78
2018-05-02T03:21:18.876Z,17.64
2018-05-02T03:23:49.404Z,17.71
2018-05-02T03:26:20.149Z,17.63
2018-05-02T03:28:50.841Z,17.55
2018-05-02T03:31:21.513Z,17.48
2018-05-02T03:33:53.033Z,17.61
2018-05-02T03:36:24.159Z,17.63
2018-05-02T03:38:54.832Z,17.58
2018-05-02T03:41:25.507Z,17.53
2018-05-02T03:43:56.123Z,17.46
2018-05-02T03:46:26.782Z,17.22
2018-05-02T03:48:57.434Z,17.10
2018-05-02T03:51:28.060Z,17.08
2018-05-02T03:53:58.699Z,17.28
2018-05-02T03:56:29.854Z,17.22
2018-05-02T03:59:00.483Z,17.22
2018-05-02T04:01:42.587Z,17.04
2018-05-02T04:04:19.864Z,17.02
2018-05-02T04:06:54.866Z,17.14
2018-05-02T04:09:25.549Z,17.26
2018-05-02T04:11:56.156Z,17.22
2018-05-02T04:14:26.847Z,17.48
2018-05-02T04:16:58.343Z,17.18
2018-05-02T04:19:29.405Z,17.01
2018-05-02T04:22:00.200Z,16.82
2018-05-02T04:24:30.565Z,17.08
2018-05-02T04:27:01.348Z,17.39
2018-05-02T04:29:32.099Z,17.63
2018-05-02T04:32:02.671Z,17.46
2018-05-02T04:37:41.524Z,17.30
2018-05-02T04:40:12.195Z,17.02
2018-05-02T04:42:42.420Z,16.91
2018-05-02T04:45:13.017Z,17.11
2018-05-02T04:47:44.936Z,17.19
2018-05-02T04:50:16.381Z,17.39
2018-05-02T04:52:47.250Z,17.83
2018-05-02T04:55:17.808Z,18.10
2018-05-02T04:57:48.944Z,17.83
2018-05-02T05:00:19.584Z,17.80
2018-05-02T05:02:50.229Z,17.69
2018-05-02T05:05:20.808Z,17.46
2018-05-02T05:07:51.324Z,17.66
2018-05-02T05:10:21.891Z,17.83
2018-05-02T05:12:53.157Z,18.21
2018-05-02T05:15:24.021Z,18.57
2018-05-02T05:17:54.855Z,18.78
2018-05-02T05:20:25.566Z,19.09
2018-05-02T05:22:56.140Z,19.27
2018-05-02T05:25:26.728Z,19.27
2018-05-02T05:27:57.370Z,19.27
2018-05-02T05:30:28.389Z,19.39
2018-05-02T05:32:58.983Z,19.40
2018-05-02T05:35:29.533Z,19.34
2018-05-02T05:38:00.117Z,19.21
2018-05-02T05:40:30.877Z,19.48
2018-05-02T05:43:01.219Z,19.52
2018-05-02T05:45:31.891Z,19.54
2018-05-02T05:48:23.950Z,19.59
2018-05-02T05:50:57.026Z,20.09
2018-05-02T05:53:27.504Z,19.74
2018-05-02T05:55:58.250Z,19.17
2018-05-02T05:58:28.848Z,19.28
2018-05-02T06:00:59.406Z,19.25
2018-05-02T06:03:30.465Z,19.38
2018-05-02T06:06:01.168Z,19.54
2018-05-02T06:08:31.834Z,20.08
2018-05-02T06:11:02.849Z,20.93
2018-05-02T06:13:33.536Z,21.55
2018-05-02T06:16:04.048Z,21.68
2018-05-02T06:18:34.752Z,21.80
2018-05-02T06:21:06.393Z,21.68
2018-05-02T06:23:38.059Z,21.62
2018-05-02T06:26:11.944Z,21.75
2018-05-02T06:28:43.102Z,21.90
2018-05-02T06:31:14.149Z,22.35
2018-05-02T06:33:45.990Z,22.72
2018-05-02T06:36:17.297Z,22.78
2018-05-02T06:38:48.011Z,22.97
2018-05-02T06:41:19.144Z,23.16
2018-05-02T06:43:49.883Z,23.00
2018-05-02T06:46:21.523Z,22.64
2018-05-02T06:48:52.716Z,22.75
2018-05-02T06:51:23.504Z,22.81
2018-05-02T06:53:54.130Z,23.23
2018-05-02T06:56:24.755Z,23.11
2018-05-02T06:58:55.749Z,23.41
2018-05-02T07:01:26.763Z,23.29
2018-05-02T07:03:57.397Z,23.05
2018-05-02T07:06:28.533Z,23.41
2018-05-02T07:08:59.331Z,23.50
2018-05-02T07:11:29.969Z,23.53
2018-05-02T07:14:00.697Z,24.14
2018-05-02T07:16:31.097Z,24.21
2018-05-02T07:19:01.628Z,24.32
2018-05-02T07:21:32.388Z,23.57
2018-05-02T07:24:03.142Z,23.77
2018-05-02T07:26:33.737Z,23.73
2018-05-02T07:29:04.791Z,24.00
2018-05-02T07:31:35.705Z,24.56
2018-05-02T07:34:06.336Z,24.63
2018-05-02T07:36:37.247Z,24.52
2018-05-02T07:39:07.780Z,24.84
2018-05-02T07:41:38.788Z,25.11
2018-05-02T07:44:09.480Z,25.07
2018-05-02T07:46:40.678Z,25.02
2018-05-02T07:49:11.572Z,25.06
2018-05-02T07:51:43.069Z,25.11
2018-05-02T07:54:14.626Z,25.24
2018-05-02T07:56:45.191Z,25.41
2018-05-02T07:59:16.654Z,25.57
2018-05-02T08:01:48.126Z,25.40
2018-05-02T08:04:18.791Z,25.62
2018-05-02T08:06:49.877Z,25.69
2018-05-02T08:09:20.448Z,25.68
2018-05-02T08:11:51.105Z,25.82
2018-05-02T08:14:21.965Z,25.87
2018-05-02T08:16:52.765Z,25.54
2018-05-02T08:19:23.189Z,25.74
2018-05-02T08:21:53.985Z,26.04
2018-05-02T08:24:24.581Z,26.41
2018-05-02T08:26:55.887Z,26.49
2018-05-02T08:29:26.805Z,26.31
2018-05-02T08:31:57.490Z,26.47
2018-05-02T08:34:28.174Z,26.55
2018-05-02T08:36:58.805Z,26.68
2018-05-02T08:39:29.469Z,26.85
2018-05-02T08:42:00.094Z,27.02
2018-05-02T08:44:30.784Z,26.78
2018-05-02T08:47:01.565Z,27.24
2018-05-02T08:49:32.644Z,27.44
2018-05-02T08:52:03.564Z,27.76
2018-05-02T08:54:34.268Z,27.55
2018-05-02T08:57:04.801Z,26.95
2018-05-02T08:59:35.533Z,27.26
2018-05-02T09:02:06.232Z,27.20
2018-05-02T09:04:36.866Z,26.67
2018-05-02T09:07:07.612Z,26.78
2018-05-02T09:09:38.417Z,27.13
2018-05-02T09:12:09.290Z,27.05
2018-05-02T09:14:39.960Z,26.66
2018-05-02T09:17:10.754Z,26.83
2018-05-02T09:19:41.377Z,27.21
2018-05-02T09:22:12.470Z,27.30
2018-05-02T09:24:43.290Z,27.25
2018-05-02T09:27:14.388Z,27.64
2018-05-02T09:29:45.184Z,28.28
2018-05-02T09:32:16.088Z,28.63
2018-05-02T09:34:47.515Z,28.69
2018-05-02T09:37:19.051Z,28.94
2018-05-02T09:39:49.729Z,28.63
2018-05-02T09:42:20.460Z,27.59
2018-05-02T09:44:51.282Z,27.42
2018-05-02T09:47:21.974Z,27.88
2018-05-02T09:49:52.589Z,28.52
2018-05-02T09:52:23.264Z,28.69
2018-05-02T09:54:53.993Z,29.20
2018-05-02T09:57:24.701Z,29.25
2018-05-02T09:59:55.007Z,29.52
2018-05-02T10:02:25.712Z,29.62
2018-05-02T10:04:56.883Z,29.74
2018-05-02T10:07:28.236Z,29.82
2018-05-02T10:09:59.960Z,29.51
2018-05-02T10:12:31.214Z,29.03
2018-05-02T10:15:01.449Z,29.20
2018-05-02T10:17:32.066Z,29.57
2018-05-02T10:20:03.269Z,30.03
2018-05-02T10:22:34.500Z,29.94
2018-05-02T10:25:05.224Z,29.65
2018-05-02T10:27:35.619Z,29.70
2018-05-02T10:30:06.483Z,28.98
2018-05-02T10:32:37.099Z,27.97
2018-05-02T10:35:07.744Z,28.55
2018-05-02T10:37:38.902Z,29.33
2018-05-02T10:40:09.599Z,29.72
2018-05-02T10:42:40.673Z,30.05
2018-05-02T10:45:11.376Z,30.20
2018-05-02T10:47:41.987Z,30.15
2018-05-02T10:50:12.597Z,30.38
2018-05-02T10:52:43.321Z,30.87
2018-05-02T10:55:13.949Z,31.22
2018-05-02T10:57:44.709Z,31.62
2018-05-02T11:00:15.757Z,31.77
2018-05-02T11:02:46.293Z,31.19
2018-05-02T11:05:18.124Z,31.13
2018-05-02T11:07:49.778Z,31.58
2018-05-02T11:10:20.677Z,31.35
2018-05-02T11:12:51.457Z,31.33
2018-05-02T11:15:22.100Z,31.02
2018-05-02T11:17:52.717Z,31.00
2018-05-02T11:20:23.117Z,30.83
2018-05-02T11:22:53.633Z,31.16
2018-05-02T11:25:24.347Z,31.54
2018-05-02T11:27:55.554Z,31.39
2018-05-02T11:30:25.941Z,31.49
2018-05-02T11:32:56.582Z,31.68
2018-05-02T11:35:27.195Z,31.01
2018-05-02T11:37:57.868Z,30.18
2018-05-02T11:40:28.528Z,30.34
2018-05-02T11:42:59.135Z,30.56
2018-05-02T11:45:29.960Z,31.00
2018-05-02T11:48:01.044Z,30.82
2018-05-02T11:50:31.678Z,30.79
2018-05-02T11:53:02.268Z,30.66
2018-05-02T11:55:33.380Z,30.72
2018-05-02T11:58:04.192Z,30.66
2018-05-02T12:00:34.858Z,30.78
2018-05-02T12:03:05.489Z,31.02
2018-05-02T12:05:36.167Z,30.51
2018-05-02T12:08:06.768Z,30.14
2018-05-02T12:10:37.385Z,30.70
2018-05-02T12:13:08.101Z,30.75
2018-05-02T12:15:38.772Z,30.85
2018-05-02T12:18:09.463Z,31.40
2018-05-02T12:20:40.271Z,31.25
2018-05-02T12:23:11.149Z,30.93
2018-05-02T12:25:42.296Z,30.64
2018-05-02T12:28:13.086Z,30.74
2018-05-02T12:30:43.740Z,31.53
2018-05-02T12:33:14.447Z,31.62
2018-05-02T12:35:45.359Z,31.85
2018-05-02T12:38:15.883Z,31.07
2018-05-02T12:40:46.546Z,30.97
2018-05-02T12:43:18.485Z,30.95
2018-05-02T12:45:49.967Z,30.50
2018-05-02T12:48:21.218Z,30.44
2018-05-02T12:50:51.960Z,30.92
2018-05-02T12:53:22.632Z,30.62
2018-05-02T12:55:53.333Z,30.33
2018-05-02T12:58:24.021Z,29.66
2018-05-02T13:00:55.339Z,29.68
2018-05-02T13:03:26.772Z,30.65
2018-05-02T13:05:57.539Z,31.09
2018-05-02T13:08:28.271Z,31.09
2018-05-02T13:10:58.940Z,31.29
2018-05-02T13:13:29.394Z,31.61
2018-05-02T13:16:00.541Z,31.38
2018-05-02T13:18:31.111Z,31.29
2018-05-02T13:21:01.773Z,31.27
2018-05-02T13:23:32.469Z,31.32
2018-05-02T13:26:03.063Z,31.45
2018-05-02T13:28:33.322Z,31.50
2018-05-02T13:31:04.761Z,31.17
2018-05-02T13:33:35.639Z,31.30
2018-05-02T13:36:06.152Z,31.34
2018-05-02T13:38:38.007Z,31.66
2018-05-02T13:41:08.590Z,31.65
2018-05-02T13:43:39.041Z,32.02
2018-05-02T13:46:10.086Z,32.13
2018-05-02T13:48:40.761Z,31.77
2018-05-02T13:51:12.618Z,31.33
2018-05-02T13:53:43.280Z,31.08
2018-05-02T13:56:13.845Z,31.42
2018-05-02T13:58:44.448Z,30.90
2018-05-02T14:01:15.139Z,30.93
2018-05-02T14:03:46.016Z,30.58
2018-05-02T14:06:16.658Z,30.55
2018-05-02T14:08:47.067Z,30.94
2018-05-02T14:11:18.468Z,30.71
2018-05-02T14:13:49.346Z,30.67
2018-05-02T14:16:20.399Z,30.82
2018-05-02T14:18:50.781Z,30.61
2018-05-02T14:21:23.125Z,30.93
2018-05-02T14:23:53.695Z,31.50
2018-05-02T14:26:24.185Z,30.86
2018-05-02T14:28:54.996Z,31.78
2018-05-02T14:31:25.674Z,31.78
2018-05-02T14:33:56.647Z,31.77
2018-05-02T14:36:27.797Z,31.99
2018-05-02T14:38:58.832Z,31.75
2018-05-02T14:41:29.468Z,30.87
2018-05-02T14:44:00.115Z,30.55
2018-05-02T14:47:01.581Z,31.28
2018-05-02T14:49:30.327Z,31.27
2018-05-02T14:51:59.168Z,31.41
2018-05-02T14:54:27.973Z,31.67
2018-05-02T14:56:56.761Z,31.49
2018-05-02T14:59:26.289Z,31.14
2018-05-02T15:01:55.243Z,30.52
2018-05-02T15:04:24.729Z,30.94
2018-05-02T15:06:53.484Z,31.39
2018-05-02T15:09:22.244Z,31.79
2018-05-02T15:11:52.837Z,31.54
2018-05-02T15:14:22.082Z,31.93
2018-05-02T15:16:52.682Z,31.78
2018-05-02T15:19:22.182Z,31.97
2018-05-02T15:21:52.035Z,32.30
2018-05-02T15:24:20.768Z,32.87
2018-05-02T15:26:49.697Z,33.08
2018-05-02T15:29:19.253Z,32.95
2018-05-02T15:31:48.112Z,32.13
2018-05-02T15:34:17.641Z,32.61
2018-05-02T15:36:46.499Z,33.15
2018-05-02T15:39:15.220Z,32.90
2018-05-02T15:41:43.958Z,33.18
2018-05-02T15:44:12.723Z,32.50
2018-05-02T15:46:41.742Z,32.35
2018-05-02T15:49:10.620Z,32.35
2018-05-02T15:51:39.560Z,31.92
2018-05-02T15:54:09.040Z,32.25
2018-05-02T15:56:37.914Z,32.25
2018-05-02T15:59:06.656Z,32.51
2018-05-02T16:01:35.586Z,32.80
2018-05-02T16:04:04.492Z,32.70
2018-05-02T16:06:33.954Z,32.65
2018-05-02T16:09:02.797Z,32.10
2018-05-02T16:11:31.607Z,31.97
2018-05-02T16:14:00.347Z,31.93
2018-05-02T16:16:29.276Z,32.20
2018-05-02T16:18:57.980Z,32.32
2018-05-02T16:21:27.490Z,32.17
2018-05-02T16:23:56.568Z,32.53
2018-05-02T16:26:25.467Z,32.16
2018-05-02T16:28:54.211Z,32.01
2018-05-02T16:31:22.969Z,31.45
2018-05-02T16:33:52.664Z,31.68
2018-05-02T16:36:23.256Z,32.03
2018-05-02T16:38:53.815Z,32.09
2018-05-02T16:41:22.798Z,32.06
2018-05-02T16:43:51.553Z,32.00
2018-05-02T16:46:20.947Z,31.91
2018-05-02T16:48:49.730Z,31.78
2018-05-02T16:51:19.218Z,31.86
2018-05-02T16:53:49.460Z,32.39
2018-05-02T16:56:19.565Z,32.60
2018-05-02T16:58:48.294Z,33.39
2018-05-02T17:01:18.165Z,33.66
2018-05-02T17:03:47.022Z,33.39
2018-05-02T17:06:15.753Z,33.57
2018-05-02T17:08:44.615Z,33.34
2018-05-02T17:11:14.223Z,32.87
2018-05-02T17:13:43.071Z,32.61
2018-05-02T17:16:12.172Z,32.36
2018-05-02T17:18:40.957Z,32.06
2018-05-02T17:21:09.855Z,31.97
2018-05-02T17:23:38.617Z,31.95
2018-05-02T17:26:07.358Z,31.63
2018-05-02T17:28:36.226Z,31.26
2018-05-02T17:31:06.256Z,31.23
2018-05-02T17:33:35.067Z,31.34
2018-05-02T17:36:05.643Z,31.17
2018-05-02T17:38:35.212Z,30.97
2018-05-02T17:41:04.676Z,30.75
2018-05-02T17:43:33.432Z,30.67
2018-05-02T17:46:02.940Z,30.43
2018-05-02T17:48:32.409Z,30.04
2018-05-02T17:51:02.161Z,29.63
2018-05-02T17:53:32.081Z,29.33
2018-05-02T17:56:01.138Z,29.28
2018-05-02T17:58:29.992Z,29.40
2018-05-02T18:00:58.802Z,29.52
2018-05-02T18:03:27.548Z,29.82
2018-05-02T18:05:56.418Z,29.41
2018-05-02T18:08:25.300Z,28.85
2018-05-02T18:10:54.693Z,28.67
2018-05-02T18:13:24.012Z,28.63
2018-05-02T18:15:54.873Z,28.58
2018-05-02T18:18:26.790Z,28.51
2018-05-02T18:20:56.426Z,28.44
2018-05-02T18:23:25.814Z,28.05
2018-05-02T18:25:54.907Z,27.91
2018-05-02T18:28:25.558Z,27.74
2018-05-02T18:31:11.685Z,27.60
2018-05-02T18:33:40.509Z,27.45
2018-05-02T18:36:10.043Z,27.47
2018-05-02T18:38:39.373Z,27.85
2018-05-02T18:41:08.113Z,28.10
2018-05-02T18:43:37.702Z,28.14
2018-05-02T18:46:06.437Z,28.37
2018-05-02T18:48:35.229Z,28.44
2018-05-02T18:51:04.537Z,28.19
2018-05-02T18:53:33.624Z,27.92
2018-05-02T18:56:02.443Z,27.70
2018-05-02T18:58:32.022Z,27.86
2018-05-02T19:01:01.450Z,27.80
2018-05-02T19:03:30.187Z,27.50
2018-05-02T19:05:58.921Z,27.36
2018-05-02T19:08:27.678Z,27.30
2018-05-02T19:10:57.115Z,27.35
2018-05-02T19:13:27.314Z,27.12
2018-05-02T19:15:56.446Z,26.80
2018-05-02T19:18:31.064Z,26.78
2018-05-02T19:20:59.846Z,26.69
2018-05-02T19:23:29.418Z,26.74
2018-05-02T19:26:03.817Z,26.53
2018-05-02T19:28:33.346Z,26.65
2018-05-02T19:31:07.870Z,26.60
2018-05-02T19:33:43.491Z,26.59
2018-05-02T19:36:13.070Z,26.69
2018-05-02T19:38:43.093Z,26.63
2018-05-02T19:41:18.643Z,26.64
2018-05-02T19:43:53.481Z,26.59
2018-05-02T19:46:22.252Z,26.71
2018-05-02T19:48:52.923Z,26.55
2018-05-02T19:51:27.596Z,26.17
2018-05-02T19:53:56.389Z,25.92
2018-05-02T19:56:25.129Z,26.38
2018-05-02T19:58:56.017Z,26.16
2018-05-02T20:04:23.162Z,26.46
2018-05-02T20:06:51.908Z,26.24
2018-05-02T20:09:26.268Z,25.58
2018-05-02T20:12:00.682Z,25.21
2018-05-02T20:14:29.576Z,25.22
2018-05-02T20:16:59.347Z,25.25
2018-05-02T20:19:28.653Z,24.88
2018-05-02T20:21:57.633Z,24.51
2018-05-02T20:24:26.846Z,24.22
2018-05-02T20:26:56.409Z,23.75
2018-05-02T20:29:25.165Z,23.58
2018-05-02T20:31:53.922Z,23.50
2018-05-02T20:34:22.685Z,23.02
2018-05-02T20:36:51.437Z,22.69
2018-05-02T20:39:21.030Z,23.20
2018-05-02T20:41:49.782Z,22.89
2018-05-02T20:44:18.741Z,22.80
2018-05-02T20:46:47.641Z,22.66
2018-05-02T20:49:16.384Z,22.51
2018-05-02T20:51:48.274Z,22.11
2018-05-02T20:54:17.082Z,22.19
2018-05-02T20:56:46.573Z,22.25
2018-05-02T20:59:16.150Z,22.65
2018-05-02T21:01:45.630Z,22.89
2018-05-02T21:04:15.399Z,22.88
2018-05-02T21:06:44.889Z,22.74
2018-05-02T21:09:15.880Z,22.20
2018-05-02T21:11:45.356Z,21.58
2018-05-02T21:14:14.771Z,22.05
2018-05-02T21:16:44.036Z,22.67
2018-05-02T21:19:12.810Z,22.82
2018-05-02T21:21:43.051Z,22.79
2018-05-02T21:24:13.456Z,22.76
2018-05-02T21:26:42.292Z,22.29
2018-05-02T21:29:11.012Z,22.51
2018-05-02T21:31:39.813Z,22.85
2018-05-02T21:34:08.586Z,22.79
2018-05-02T21:36:37.345Z,22.37
2018-05-02T21:39:06.139Z,22.58
2018-05-02T21:41:34.951Z,23.16
2018-05-02T21:44:03.990Z,22.97
2018-05-02T21:46:33.517Z,22.81
2018-05-02T21:49:02.290Z,22.66
2018-05-02T21:51:32.073Z,22.53
2018-05-02T21:54:00.818Z,22.65
2018-05-02T21:56:30.386Z,22.61
2018-05-02T21:58:59.693Z,22.40
2018-05-02T22:01:29.984Z,22.28
2018-05-02T22:03:59.689Z,22.20
2018-05-02T22:06:28.851Z,22.14
2018-05-02T22:08:58.911Z,21.93
2018-05-02T22:11:27.658Z,21.70
2018-05-02T22:13:57.084Z,21.30
2018-05-02T22:16:26.028Z,21.15
2018-05-02T22:18:55.487Z,21.10
2018-05-02T22:21:24.581Z,20.83
2018-05-02T22:23:53.540Z,20.68
2018-05-02T22:26:22.283Z,20.62
2018-05-02T22:28:51.196Z,21.00
2018-05-02T22:31:19.945Z,21.35
2018-05-02T22:33:48.789Z,21.40
2018-05-02T22:36:18.342Z,21.40
2018-05-02T22:38:47.096Z,21.57
2018-05-02T22:41:17.196Z,21.61
2018-05-02T22:43:45.932Z,21.55
2018-05-02T22:46:15.477Z,21.36
2018-05-02T22:48:44.789Z,21.27
2018-05-02T22:51:14.232Z,21.32
2018-05-02T22:53:43.079Z,21.46
2018-05-02T22:56:12.148Z,21.25
2018-05-02T22:58:41.745Z,21.15
2018-05-02T23:01:10.509Z,21.47
2018-05-02T23:03:39.242Z,21.52
2018-05-02T23:06:07.981Z,21.45
2018-05-02T23:08:36.718Z,21.62
2018-05-02T23:11:06.356Z,21.82
2018-05-02T23:13:45.284Z,21.63
2018-05-02T23:16:15.148Z,21.23
2018-05-02T23:18:43.865Z,21.26
2018-05-02T23:21:12.681Z,21.25
2018-05-02T23:23:41.436Z,21.25
2018-05-02T23:26:10.190Z,21.55
2018-05-02T23:28:39.910Z,21.69
2018-05-02T23:31:09.392Z,21.50
2018-05-02T23:33:38.117Z,21.44
2018-05-02T23:36:06.957Z,20.96
2018-05-02T23:38:35.774Z,21.02
2018-05-02T23:41:04.885Z,20.78
2018-05-02T23:43:33.672Z,20.57
2018-05-02T23:46:03.152Z,20.72
2018-05-02T23:48:31.912Z,20.57
2018-05-02T23:51:02.006Z,20.33
2018-05-02T23:53:31.405Z,20.48
2018-05-02T23:56:00.534Z,20.25
2018-05-02T23:58:30.616Z,20.15
